Startpagina
METAR-TAF:

METAR-TAF

Vliegvelden :

Yellowknife, Northwest Territories, Canada

Yellowknife Airport

breedte: 62-28N, lengte: 114-27W, hoogte: 205 m

Actueel weer

Dit bericht is 43 minuten geleden gemaakt, om 09:00 UTC
Wind 5 kt uit het oosten
Temperatuur 13°C
Vochtigheid 77%
Druk 1005 hPa
Zicht: 24.1 km
Weinig wolken op 8000 ft

METAR: CYZF 170900Z 08005KT 15SM FEW080 13/09 A2969 RMK AC2 SLP061 DENSITY ALT 1000FT

Tijdstip: 03:43 (09:43 UTC)

Verwachting

Dit bericht is 4 uur en het 5 minuten geleden gemaakt, om 05:38 UTC
Verwachting geldig van 17 om 06 UTC tot 18 om 06 UTC
Wind 5 kt uit het noorden
Zicht: 10 km
Weinig wolken op 8000 ft
Wijzigt naar
van 17 om 07 UTC tot 17 om 09 UTC
Wind 3 kt uit variabele richting
Van 17 om 1000 UTC
Wind 3 kt uit variabele richting
Zicht: 10 km
Onbewolkt
Wijzigt naar
van 17 om 16 UTC tot 17 om 18 UTC
Wind 8 kt uit het zuidzuidoosten

TAF: CYZF 170538Z 1706/1806 36005KT P6SM FEW080 BECMG 1707/1709 VRB03KT FM171000 VRB03KT P6SM SKC BECMG 1716/1718 16008KT RMK NXT FCST BY 171200Z

Waarnemingen en weersverwachtingen van meer dan 4000 vliegvelden (METAR en TAF).

De beschikbare stations zijn de gele en rode punten op de kaart.

Ga met uw muis naar het station om de naam te zien.

Klik dan om waarnemingen en weersverwachtingen te zien.

kaart wijzigen: klik op de groene knoppen met een zwart kruis om in te zoomen, op de groene knop met een streepje om uit te zoomen of op de groene pijlen voor aangrenzende kaarten.


METAR-TAF: